Time;durP1;ratioP1;P1;durP2;ratioP2;P2;SDS_P1;SDS_P2;PMS_P1;PMS_P2;Temp;Humidity;BMP_temperature;BMP_pressure;BME280_temperature;BME280_humidity;BME280_pressure;Samples;Min_cycle;Max_cycle;Signal;HPM_P1;HPM_P2
2022/05/17 00:02:05;;;;;;;12.73;8.65;;;13.50;99.90;;;12.28;93.87;98167.44;4982025;28;20065;-70
2022/05/17 00:04:32;;;;;;;14.70;9.90;;;13.40;99.90;;;12.24;93.74;98172.81;4979799;28;20176;-69
2022/05/17 00:07:00;;;;;;;9.43;8.13;;;13.40;99.90;;;12.26;93.61;98171.00;4982348;28;20137;-69
2022/05/17 00:09:28;;;;;;;9.70;6.18;;;13.40;99.90;;;12.44;93.51;98161.63;4980600;28;20074;-69
2022/05/17 00:11:56;;;;;;;11.30;7.43;;;13.30;99.90;;;12.48;93.59;98168.41;4980475;28;20520;-70
2022/05/17 00:14:23;;;;;;;9.10;5.85;;;13.30;99.90;;;12.71;93.77;98167.44;5010638;28;20145;-70
2022/05/17 00:16:51;;;;;;;6.72;5.13;;;13.30;99.90;;;12.74;94.11;98164.72;4980506;28;20038;-70
2022/05/17 00:19:21;;;;;;;11.82;7.05;;;13.40;99.90;;;12.71;94.45;98157.03;4979167;28;20142;-70
2022/05/17 00:21:48;;;;;;;7.85;5.20;;;13.40;99.90;;;12.80;94.74;98155.81;4979320;28;21771;-70
2022/05/17 00:24:18;;;;;;;8.90;7.20;;;13.40;99.90;;;12.71;95.09;98157.88;4981488;28;20081;-70
2022/05/17 00:26:45;;;;;;;8.50;6.47;;;13.40;99.90;;;12.69;95.46;98157.09;4980645;28;20134;-70
2022/05/17 00:29:14;;;;;;;7.75;4.78;;;13.40;99.90;;;12.70;95.87;98150.13;4980126;28;20142;-70
2022/05/17 00:31:41;;;;;;;8.93;5.22;;;13.40;99.90;;;12.76;96.12;98144.66;4977267;28;20195;-70
2022/05/17 00:34:08;;;;;;;8.00;5.85;;;13.30;99.90;;;12.68;96.47;98138.91;4980520;28;20410;-70
2022/05/17 00:36:36;;;;;;;7.35;5.00;;;13.30;99.90;;;12.67;96.82;98138.06;4982669;28;20141;-70
2022/05/17 00:39:04;;;;;;;9.45;5.20;;;13.30;99.90;;;12.56;97.23;98140.28;4980642;28;20042;-70
2022/05/17 00:41:31;;;;;;;8.27;5.32;;;13.30;99.90;;;12.54;97.55;98135.16;4977081;28;20513;-70
2022/05/17 00:47:08;;;;;;;7.18;4.35;;;13.20;99.90;;;12.52;98.68;98126.56;4981487;28;20047;-70
2022/05/17 00:49:44;;;;;;;9.40;5.07;;;13.10;99.90;;;12.39;99.24;98117.56;4976150;28;20054;-68
2022/05/17 00:52:25;;;;;;;8.60;5.50;;;13.10;99.90;;;12.37;99.68;98116.75;4972792;28;20101;-70
2022/05/17 00:55:01;;;;;;;7.57;5.03;;;13.10;99.90;;;12.38;100.00;98121.03;4979275;28;20461;-70
2022/05/17 00:57:35;;;;;;;6.68;5.13;;;13.10;99.90;;;12.31;100.00;98111.81;4980798;28;20113;-70
2022/05/17 01:00:12;;;;;;;9.02;6.63;;;13.00;99.90;;;12.31;100.00;98114.41;4981554;28;20133;-67
2022/05/17 01:03:03;;;;;;;4.95;3.97;;;13.00;99.90;;;12.32;100.00;98116.13;4961158;28;20060;-70
2022/05/17 01:05:35;;;;;;;7.32;4.90;;;13.00;99.90;;;12.25;100.00;98117.28;4982340;28;20050;-70
2022/05/17 01:08:03;;;;;;;5.90;4.57;;;13.00;99.90;;;12.24;100.00;98119.00;4983445;28;20054;-70
2022/05/17 01:10:30;;;;;;;6.43;4.60;;;12.90;99.90;;;12.37;100.00;98108.97;4978712;28;20140;-70
2022/05/17 01:15:45;;;;;;;11.40;7.22;;;12.90;99.90;;;11.95;100.00;98109.78;4980558;28;20594;-70
2022/05/17 01:18:12;;;;;;;8.88;4.68;;;12.80;99.90;;;12.18;100.00;98113.22;4975160;28;20493;-70
2022/05/17 01:20:40;;;;;;;6.72;4.40;;;12.80;99.90;;;12.13;100.00;98116.00;4978362;28;20600;-70
2022/05/17 01:23:07;;;;;;;5.20;4.70;;;12.80;99.90;;;12.12;100.00;98112.56;4979198;28;20046;-70
2022/05/17 01:25:34;;;;;;;9.52;6.97;;;12.80;99.90;;;12.02;100.00;98112.97;4978878;28;20049;-69
2022/05/17 01:28:27;;;;;;;7.35;6.55;;;12.80;99.90;;;11.90;100.00;98122.94;4978211;28;21839;-70
2022/05/17 01:30:56;;;;;;;;;;;12.70;99.90;;;11.85;100.00;98127.47;4976282;28;20054;-70
2022/05/17 01:33:23;;;;;;;7.78;4.72;;;12.70;99.90;;;11.85;100.00;98140.47;4974861;28;19972;-70
2022/05/17 01:35:50;;;;;;;5.53;4.65;;;12.70;99.90;;;11.93;100.00;98127.22;4979417;28;20113;-70
2022/05/17 01:38:17;;;;;;;7.88;5.30;;;12.70;99.90;;;12.04;100.00;98132.84;4974874;28;20055;-70
2022/05/17 01:40:44;;;;;;;5.38;4.63;;;12.70;99.90;;;11.94;100.00;98131.50;4976439;28;20520;-70
2022/05/17 01:43:11;;;;;;;9.13;4.00;;;12.70;99.90;;;11.85;100.00;98135.25;4983161;28;20101;-70
2022/05/17 01:45:38;;;;;;;6.10;3.80;;;12.60;99.90;;;11.86;100.00;98123.97;4981402;28;20043;-70
2022/05/17 01:48:05;;;;;;;5.60;4.45;;;12.60;99.90;;;11.94;100.00;98121.09;4980872;28;20149;-70
2022/05/17 01:50:33;;;;;;;6.80;4.25;;;12.50;99.90;;;11.70;100.00;98123.72;4983552;28;20141;-70
2022/05/17 01:53:01;;;;;;;4.88;4.10;;;12.50;99.90;;;11.74;100.00;98116.63;4981804;28;20120;-70
2022/05/17 01:55:28;;;;;;;6.25;4.45;;;12.50;99.90;;;11.64;100.00;98116.16;4986057;28;20105;-70
2022/05/17 01:57:55;;;;;;;5.15;3.95;;;12.50;99.90;;;11.74;100.00;98121.84;4982584;28;20141;-69
2022/05/17 02:00:24;;;;;;;4.95;4.40;;;12.40;99.90;;;11.86;100.00;98112.69;4982678;28;20054;-70
2022/05/17 02:02:51;;;;;;;6.80;4.18;;;12.40;99.90;;;11.90;100.00;98106.50;4981052;28;20460;-70
2022/05/17 02:05:20;;;;;;;5.13;3.97;;;12.50;99.90;;;11.86;100.00;98104.91;4979427;28;20047;-70
2022/05/17 02:07:50;;;;;;;5.70;3.85;;;12.50;99.90;;;11.70;100.00;98108.13;4979871;28;20054;-70
2022/05/17 02:10:19;;;;;;;8.35;3.50;;;12.50;99.90;;;11.68;100.00;98102.13;4980253;28;20053;-70
2022/05/17 02:12:46;;;;;;;4.85;3.22;;;12.50;99.90;;;11.65;100.00;98094.41;4983583;28;20051;-70
2022/05/17 02:15:13;;;;;;;5.28;3.25;;;12.40;99.90;;;11.76;100.00;98091.41;4981950;28;20512;-70
2022/05/17 02:17:42;;;;;;;5.18;3.83;;;12.30;99.90;;;11.68;100.00;98093.47;4981614;28;20397;-70
2022/05/17 02:20:10;;;;;;;4.72;4.07;;;12.30;99.90;;;11.68;100.00;98096.91;4983427;28;20039;-70
2022/05/17 02:22:36;;;;;;;5.82;3.65;;;12.30;99.90;;;11.70;100.00;98108.13;4984619;28;20133;-70
2022/05/17 02:25:05;;;;;;;6.38;4.22;;;12.30;99.90;;;11.75;100.00;98094.09;4980830;28;20129;-70
2022/05/17 02:27:32;;;;;;;6.95;4.43;;;12.30;99.90;;;11.75;100.00;98105.34;4985933;28;20540;-69
2022/05/17 02:30:00;;;;;;;6.60;4.35;;;12.30;99.90;;;11.62;100.00;98099.75;4985009;28;20096;-69
2022/05/17 02:32:27;;;;;;;11.05;6.35;;;12.30;99.90;;;11.49;100.00;98111.50;4981849;28;20055;-70
2022/05/17 02:34:54;;;;;;;6.03;4.18;;;12.20;99.90;;;11.66;100.00;98103.94;4983632;28;20050;-70
2022/05/17 02:37:21;;;;;;;10.25;6.45;;;12.20;99.90;;;11.27;100.00;98104.53;4986225;28;20059;-69
2022/05/17 02:39:48;;;;;;;9.45;6.43;;;12.20;99.90;;;11.19;100.00;98114.34;4983828;28;20139;-69
2022/05/17 02:42:16;;;;;;;6.20;4.63;;;12.10;99.90;;;11.30;100.00;98112.22;4979203;28;20227;-69
2022/05/17 02:44:43;;;;;;;6.85;5.10;;;12.10;99.90;;;11.36;100.00;98113.75;4987423;28;20118;-70
2022/05/17 02:47:11;;;;;;;5.90;4.80;;;12.10;99.90;;;11.37;100.00;98125.81;4980892;28;20104;-70
2022/05/17 02:49:40;;;;;;;9.82;5.35;;;12.20;99.90;;;11.40;100.00;98124.84;4983789;28;20062;-70
2022/05/17 02:52:08;;;;;;;5.53;4.63;;;12.20;99.90;;;11.36;100.00;98133.66;4970688;28;20097;-69
2022/05/17 02:54:35;;;;;;;6.15;4.13;;;12.20;99.90;;;11.35;100.00;98125.03;4982398;28;20082;-69
2022/05/17 02:57:02;;;;;;;5.82;3.85;;;12.20;99.90;;;11.35;100.00;98127.63;4981084;28;20054;-70
2022/05/17 02:59:30;;;;;;;6.20;3.97;;;12.20;99.90;;;11.44;100.00;98127.28;4980491;28;20062;-69
2022/05/17 03:01:57;;;;;;;5.57;3.75;;;12.20;99.90;;;11.51;100.00;98133.09;4982037;28;20046;-69
2022/05/17 03:04:26;;;;;;;5.60;4.03;;;12.20;99.90;;;11.46;100.00;98132.44;4986718;28;20050;-69
2022/05/17 03:06:54;;;;;;;4.63;3.45;;;12.20;99.90;;;11.44;100.00;98126.44;4986273;28;20460;-69
2022/05/17 03:09:21;;;;;;;5.45;4.35;;;12.10;99.90;;;11.01;100.00;98123.66;4978754;28;20136;-69
2022/05/17 03:11:48;;;;;;;8.90;4.28;;;12.10;99.90;;;11.00;100.00;98124.56;4979907;28;20438;-69
2022/05/17 03:14:17;;;;;;;4.80;3.65;;;12.00;99.90;;;11.07;100.00;98125.19;4994832;28;20547;-69
2022/05/17 03:16:44;;;;;;;9.20;3.88;;;11.90;99.90;;;11.22;100.00;98124.66;4981675;28;20050;-69
2022/05/17 03:19:12;;;;;;;4.65;3.72;;;11.80;99.90;;;11.18;100.00;98120.47;4983953;28;20133;-69
2022/05/17 03:21:40;;;;;;;5.93;4.20;;;11.80;99.90;;;11.19;100.00;98131.69;4980718;28;20055;-69
2022/05/17 03:24:07;;;;;;;4.93;3.47;;;11.80;99.90;;;11.17;100.00;98120.50;4981089;28;20467;-69
2022/05/17 03:26:55;;;;;;;5.78;4.25;;;11.80;99.90;;;11.27;100.00;98127.09;4981604;28;20053;-69
2022/05/17 03:29:23;;;;;;;5.55;4.72;;;11.80;99.90;;;11.33;100.00;98124.25;4981065;28;20145;-69
2022/05/17 03:31:51;;;;;;;4.53;3.72;;;11.80;99.90;;;11.33;100.00;98123.41;4981405;28;20188;-68
2022/05/17 03:34:18;;;;;;;6.88;4.25;;;11.80;99.90;;;11.29;100.00;98120.09;4984906;28;20066;-68
2022/05/17 03:36:46;;;;;;;4.80;3.78;;;11.80;99.90;;;11.36;100.00;98124.16;4978890;28;20173;-68
2022/05/17 03:39:14;;;;;;;5.72;3.55;;;11.80;99.90;;;11.23;100.00;98118.53;4981534;28;20052;-68
2022/05/17 03:41:41;;;;;;;5.35;4.20;;;11.80;99.90;;;11.19;100.00;98121.31;4982839;28;20085;-68
2022/05/17 03:44:09;;;;;;;5.18;4.32;;;11.70;99.90;;;11.15;100.00;98114.50;4968145;28;20132;-70
2022/05/17 03:46:38;;;;;;;3.78;3.20;;;11.70;99.90;;;11.26;100.00;98120.16;4993108;28;20054;-70
2022/05/17 03:49:09;;;;;;;6.35;3.80;;;11.80;99.90;;;11.10;100.00;98117.28;4982759;28;20062;-70
2022/05/17 03:51:37;;;;;;;4.80;3.65;;;11.70;99.90;;;11.16;100.00;98121.44;4977401;28;20592;-70
2022/05/17 03:54:04;;;;;;;4.95;3.53;;;11.70;99.90;;;11.00;100.00;98129.75;4978797;28;20529;-70
2022/05/17 03:56:32;;;;;;;4.97;3.55;;;11.80;99.90;;;10.93;100.00;98119.66;4983388;28;20070;-70
2022/05/17 03:58:59;;;;;;;4.50;3.47;;;11.70;99.90;;;10.96;100.00;98119.53;4981426;28;20412;-70
2022/05/17 04:01:27;;;;;;;3.92;3.42;;;11.70;99.90;;;11.05;100.00;98127.00;4980824;28;20062;-70
2022/05/17 04:03:54;;;;;;;4.72;3.95;;;11.70;99.90;;;10.98;100.00;98123.78;4980489;28;20053;-70
2022/05/17 04:06:23;;;;;;;5.38;3.58;;;11.80;99.90;;;11.20;100.00;98129.06;4984370;28;20051;-71
2022/05/17 04:08:50;;;;;;;4.90;3.83;;;11.80;99.90;;;11.19;100.00;98129.94;4966276;28;20050;-70
2022/05/17 04:11:17;;;;;;;4.43;3.63;;;11.80;99.90;;;11.26;100.00;98121.00;4981348;28;20138;-70
2022/05/17 04:13:45;;;;;;;5.40;3.75;;;11.80;99.90;;;11.03;100.00;98126.19;4981768;28;20473;-70
2022/05/17 04:16:13;;;;;;;5.30;4.80;;;11.80;99.90;;;11.07;100.00;98125.19;4983674;28;20049;-69
2022/05/17 04:18:40;;;;;;;4.63;3.05;;;11.80;99.90;;;11.18;100.00;98132.63;4979445;28;20046;-69
2022/05/17 04:21:08;;;;;;;5.68;3.90;;;11.90;99.90;;;11.22;100.00;98137.66;4980651;28;20142;-70
2022/05/17 04:23:37;;;;;;;4.18;3.22;;;12.00;99.90;;;11.27;100.00;98138.31;4978689;28;20059;-70
2022/05/17 04:26:05;;;;;;;4.53;3.05;;;12.00;99.90;;;11.38;100.00;98130.13;4978730;28;20416;-69
2022/05/17 04:28:33;;;;;;;5.50;3.20;;;12.10;99.90;;;11.35;100.00;98140.63;4978293;28;20097;-70
2022/05/17 04:31:00;;;;;;;6.97;3.97;;;12.20;99.90;;;11.58;100.00;98141.53;4978071;28;20058;-70
2022/05/17 04:33:28;;;;;;;5.47;4.18;;;12.30;99.90;;;11.22;100.00;98145.44;4980548;28;20525;-69
2022/05/17 04:35:55;;;;;;;8.13;5.75;;;12.30;99.90;;;11.00;100.00;98152.31;4979815;28;20088;-70
2022/05/17 04:38:23;;;;;;;8.63;5.60;;;12.20;99.90;;;10.89;100.00;98150.91;4978960;28;20046;-70
2022/05/17 04:40:51;;;;;;;6.25;5.50;;;12.10;99.90;;;10.89;100.00;98156.09;4983163;28;20050;-69
2022/05/17 04:43:18;;;;;;;8.10;6.47;;;12.10;99.90;;;11.00;100.00;98155.75;4981798;28;20058;-70
2022/05/17 04:45:46;;;;;;;5.38;4.75;;;12.20;99.90;;;11.23;100.00;98167.06;4982501;28;20479;-70
2022/05/17 04:48:14;;;;;;;5.30;3.58;;;12.30;99.90;;;11.59;100.00;98164.88;4984577;28;20041;-70
2022/05/17 04:50:41;;;;;;;5.40;3.38;;;12.40;99.90;;;11.76;100.00;98158.19;4984988;28;20046;-70
2022/05/17 04:53:09;;;;;;;6.88;3.78;;;12.60;99.90;;;11.97;100.00;98165.19;5006764;28;20061;-70
2022/05/17 04:55:37;;;;;;;6.13;3.88;;;12.80;99.90;;;12.19;100.00;98165.22;4975272;28;20054;-69
2022/05/17 04:58:04;;;;;;;4.38;3.40;;;12.90;99.90;;;12.31;100.00;98154.28;4959618;28;20046;-70
2022/05/17 05:00:32;;;;;;;8.38;4.82;;;13.00;99.90;;;12.14;100.00;98159.34;4977709;28;20361;-70
2022/05/17 05:02:59;;;;;;;8.40;5.10;;;13.00;99.90;;;11.91;100.00;98155.03;4980075;28;20047;-70
2022/05/17 05:05:32;;;;;;;5.43;4.05;;;13.00;99.90;;;12.03;100.00;98153.72;4974408;28;20059;-70
2022/05/17 05:08:00;;;;;;;4.95;3.60;;;13.00;99.90;;;12.46;100.00;98160.66;4974421;28;20133;-70
2022/05/17 05:10:27;;;;;;;4.22;3.20;;;13.20;99.90;;;12.61;100.00;98153.09;4975834;28;20125;-70
2022/05/17 05:12:55;;;;;;;5.38;4.13;;;13.20;99.90;;;12.63;100.00;98156.50;4980999;28;20058;-69
2022/05/17 05:15:23;;;;;;;4.18;3.42;;;13.40;99.90;;;12.80;100.00;98145.38;4967979;28;20101;-70
2022/05/17 05:17:51;;;;;;;12.05;6.90;;;13.50;99.90;;;12.31;100.00;98150.84;4981097;28;20511;-70
2022/05/17 05:20:19;;;;;;;8.60;5.53;;;13.60;99.90;;;12.49;100.00;98157.91;4977167;28;20070;-70
2022/05/17 05:22:46;;;;;;;8.05;4.80;;;13.60;99.90;;;12.95;100.00;98149.91;4966693;28;20065;-70
2022/05/17 05:25:16;;;;;;;6.95;4.53;;;13.70;99.90;;;13.16;100.00;98150.78;4985323;28;20054;-70
2022/05/17 05:27:44;;;;;;;7.93;4.35;;;13.90;99.90;;;13.21;100.00;98159.22;4970727;28;20054;-70
2022/05/17 05:30:14;;;;;;;6.78;4.30;;;14.00;99.90;;;13.53;100.00;98154.38;4981712;28;20051;-70
2022/05/17 05:32:42;;;;;;;8.63;4.53;;;14.30;99.90;;;13.81;100.00;98156.56;4980878;28;20057;-70
2022/05/17 05:35:10;;;;;;;10.35;5.55;;;14.50;99.90;;;13.90;100.00;98158.72;4981399;28;20630;-70
2022/05/17 05:37:37;;;;;;;8.95;6.28;;;14.80;99.90;;;13.48;100.00;98157.19;4971467;28;20060;-70
2022/05/17 05:40:07;;;;;;;9.38;6.55;;;14.90;99.90;;;13.21;100.00;98155.78;4984864;28;20054;-70
2022/05/17 05:42:36;;;;;;;10.98;7.55;;;14.90;99.90;;;13.14;100.00;98168.22;4985310;28;20059;-70
2022/05/17 05:45:04;;;;;;;13.07;8.48;;;14.80;99.90;;;13.18;100.00;98173.25;4983434;28;20047;-70
2022/05/17 05:47:32;;;;;;;10.02;7.90;;;14.80;99.90;;;13.12;100.00;98178.72;4984844;28;20069;-70
2022/05/17 05:50:01;;;;;;;9.82;7.20;;;14.80;99.90;;;13.65;100.00;98185.09;4986153;28;20046;-70
2022/05/17 05:52:29;;;;;;;11.23;7.28;;;14.80;99.90;;;13.94;100.00;98185.53;4984804;28;20149;-70
2022/05/17 05:54:58;;;;;;;9.07;6.63;;;15.00;99.90;;;14.23;100.00;98191.97;4983177;28;20124;-70
2022/05/17 05:57:27;;;;;;;9.80;6.97;;;15.20;99.90;;;14.39;100.00;98185.13;4984236;28;20120;-70
2022/05/17 05:59:54;;;;;;;9.05;8.05;;;15.40;99.90;;;14.30;100.00;98184.69;4982271;28;20109;-70
2022/05/17 06:02:21;;;;;;;9.32;6.25;;;15.40;99.90;;;14.60;100.00;98191.09;4983165;28;20406;-70
2022/05/17 06:04:49;;;;;;;10.23;7.38;;;15.60;99.90;;;14.65;100.00;98193.50;4983211;28;20046;-70
2022/05/17 06:07:16;;;;;;;7.50;5.47;;;15.70;99.90;;;15.25;100.00;98187.84;4987798;28;20068;-69
2022/05/17 06:09:45;;;;;;;9.15;6.38;;;15.90;99.90;;;15.53;100.00;98182.03;4982812;28;20441;-70
2022/05/17 06:12:12;;;;;;;8.48;6.18;;;16.20;99.90;;;15.63;100.00;98171.91;4984034;28;20059;-70
2022/05/17 06:14:40;;;;;;;7.93;5.88;;;16.40;99.90;;;15.68;100.00;98173.34;4982183;28;20140;-70
2022/05/17 06:17:09;;;;;;;7.40;5.30;;;16.60;99.90;;;16.08;100.00;98175.63;4983253;28;20062;-70
2022/05/17 06:19:37;;;;;;;11.57;7.65;;;16.80;99.90;;;15.83;100.00;98173.50;4977137;28;20054;-70
2022/05/17 06:22:05;;;;;;;10.68;6.72;;;17.00;99.90;;;16.00;100.00;98183.03;4981715;28;20047;-70
2022/05/17 06:24:33;;;;;;;14.80;8.40;;;17.10;99.90;;;15.76;100.00;98178.22;4977826;28;20054;-70
2022/05/17 06:27:01;;;;;;;9.35;6.85;;;17.10;99.90;;;15.98;100.00;98188.34;4978916;28;20145;-70
2022/05/17 06:29:28;;;;;;;9.40;6.88;;;17.20;99.90;;;16.16;100.00;98194.34;4979950;28;20050;-70
2022/05/17 06:31:56;;;;;;;12.13;7.32;;;17.30;99.90;;;16.06;100.00;98188.78;4984826;28;20058;-70
2022/05/17 06:34:24;;;;;;;11.63;7.88;;;17.40;99.90;;;16.14;100.00;98190.13;4980832;28;20090;-70
2022/05/17 06:36:54;;;;;;;10.68;7.80;;;17.50;99.90;;;16.38;100.00;98195.78;4981309;28;20054;-70
2022/05/17 06:39:22;;;;;;;13.65;6.97;;;17.60;99.90;;;16.67;100.00;98194.09;4976979;28;20062;-70
2022/05/17 06:41:51;;;;;;;11.02;6.45;;;17.80;99.90;;;16.57;100.00;98192.97;4980040;28;20050;-70
2022/05/17 06:44:18;;;;;;;10.90;6.82;;;17.90;99.90;;;16.79;100.00;98192.56;4985065;28;20058;-70
2022/05/17 06:46:45;;;;;;;11.75;6.70;;;17.90;99.90;;;16.93;100.00;98195.25;4983945;28;20138;-70
2022/05/17 06:49:13;;;;;;;10.77;7.28;;;18.00;99.90;;;16.96;100.00;98184.56;4981444;28;20492;-70
2022/05/17 06:51:41;;;;;;;10.20;5.93;;;18.20;99.90;;;16.89;100.00;98178.84;4983976;28;20054;-70
2022/05/17 06:54:09;;;;;;;8.35;5.53;;;18.20;99.90;;;17.04;100.00;98182.34;4978783;28;20150;-70
2022/05/17 06:56:37;;;;;;;9.75;6.80;;;18.30;99.90;;;16.97;100.00;98172.31;4982059;28;20134;-68
2022/05/17 06:59:06;;;;;;;11.32;5.85;;;18.30;99.90;;;16.97;100.00;98167.94;4978846;28;20059;-69
2022/05/17 07:01:35;;;;;;;8.57;5.57;;;18.40;99.90;;;17.11;100.00;98162.69;4980921;28;20050;-68
2022/05/17 07:04:04;;;;;;;7.55;4.68;;;18.50;99.90;;;17.30;100.00;98166.84;4979354;28;20537;-68
2022/05/17 07:06:32;;;;;;;8.50;4.80;;;18.70;99.90;;;17.40;100.00;98167.09;4985472;28;20452;-69
2022/05/17 07:08:59;;;;;;;9.15;4.95;;;18.90;99.90;;;17.50;100.00;98169.09;4982992;28;20070;-69
2022/05/17 07:14:14;;;;;;;6.32;3.72;;;19.20;99.90;;;17.75;100.00;98162.31;4982593;28;20113;-68
2022/05/17 07:16:41;;;;;;;9.02;4.13;;;19.30;99.90;;;18.00;100.00;98156.41;4980537;28;20050;-68
2022/05/17 07:19:11;;;;;;;6.80;3.60;;;19.40;99.90;;;18.08;100.00;98148.03;4978407;28;20051;-69
2022/05/17 07:21:59;;;;;;;9.23;2.67;;;19.60;99.90;;;18.26;100.00;98144.22;4983096;28;20047;-69
2022/05/17 07:24:26;;;;;;;6.22;2.63;;;19.70;99.90;;;18.80;100.00;98141.53;4981085;28;20046;-69
2022/05/17 07:26:54;;;;;;;4.45;2.10;;;19.80;99.90;;;19.11;100.00;98130.72;4981425;28;20047;-69
2022/05/17 07:29:41;;;;;;;7.07;2.15;;;20.00;99.90;;;18.93;100.00;98127.56;4983626;28;20050;-68
2022/05/17 07:32:09;;;;;;;5.88;2.10;;;20.10;99.90;;;19.25;100.00;98121.88;4980684;28;20066;-68
2022/05/17 07:34:36;;;;;;;7.18;1.92;;;20.20;99.90;;;19.37;100.00;98121.03;4983258;28;20555;-69
2022/05/17 07:37:04;;;;;;;5.32;2.13;;;20.30;99.90;;;19.50;100.00;98121.88;4978663;28;20132;-70
2022/05/17 07:39:32;;;;;;;8.65;2.13;;;20.50;99.90;;;19.14;100.00;98128.72;4979736;28;20548;-70
2022/05/17 07:42:04;;;;;;;7.22;1.73;;;20.60;99.90;;;19.46;100.00;98127.47;4980374;28;20501;-70
2022/05/17 07:44:34;;;;;;;5.95;1.95;;;20.80;99.90;;;19.38;100.00;98120.09;4985990;28;20372;-69
2022/05/17 07:47:03;;;;;;;6.20;2.10;;;20.90;99.90;;;19.46;100.00;98128.28;4981636;28;20057;-70
2022/05/17 07:49:35;;;;;;;4.65;1.85;;;21.00;99.90;;;19.55;100.00;98129.44;4982915;28;20050;-70
2022/05/17 07:52:03;;;;;;;8.10;2.00;;;21.10;99.90;;;19.44;100.00;98130.19;4981930;28;20225;-70
2022/05/17 07:54:31;;;;;;;5.15;1.70;;;21.20;99.90;;;19.73;100.00;98130.81;4982796;28;20168;-70
2022/05/17 07:56:58;;;;;;;5.90;1.88;;;21.20;99.90;;;19.73;100.00;98132.56;4982844;28;20069;-70
2022/05/17 07:59:26;;;;;;;6.55;1.85;;;21.20;99.90;;;19.70;100.00;98135.44;4982648;28;20085;-70
2022/05/17 08:01:53;;;;;;;5.93;1.63;;;21.20;99.90;;;19.61;100.00;98137.75;4980505;28;20050;-71
2022/05/17 08:04:20;;;;;;;5.75;1.60;;;21.20;99.90;;;20.41;100.00;98133.81;4983119;28;20452;-70
2022/05/17 08:06:51;;;;;;;6.75;1.70;;;21.40;99.90;;;20.96;100.00;98129.72;4984035;28;20050;-70
2022/05/17 08:09:18;;;;;;;6.75;1.50;;;21.70;99.90;;;21.19;100.00;98122.66;4965600;28;20089;-70
2022/05/17 08:11:45;;;;;;;4.03;1.20;;;21.90;99.90;;;21.26;100.00;98128.31;4985166;28;20173;-70
2022/05/17 08:14:12;;;;;;;4.38;1.48;;;22.10;99.90;;;21.63;100.00;98123.66;4980010;28;20129;-70
2022/05/17 08:16:41;;;;;;;10.75;1.00;;;22.40;99.90;;;21.67;100.00;98121.63;4983349;28;20516;-70
2022/05/17 08:19:10;;;;;;;3.13;1.20;;;22.60;99.90;;;22.06;100.00;98114.94;4969682;28;20050;-70
2022/05/17 08:21:38;;;;;;;6.25;1.33;;;22.70;99.90;;;21.97;100.00;98115.66;4986113;28;20140;-70
2022/05/17 08:24:06;;;;;;;4.40;0.88;;;22.90;99.90;;;21.36;100.00;98112.59;4980032;28;20050;-69
2022/05/17 08:29:21;;;;;;;5.28;1.50;;;22.80;99.90;;;20.56;100.00;98122.16;4983081;28;20473;-69
2022/05/17 08:34:38;;;;;;;4.22;1.10;;;22.60;99.90;;;22.24;100.00;98112.63;4971378;28;20335;-69
2022/05/17 08:37:06;;;;;;;2.35;1.10;;;23.00;99.90;;;22.68;100.00;98113.38;4978955;28;20052;-69
2022/05/17 08:39:35;;;;;;;5.22;1.00;;;23.40;99.90;;;22.74;100.00;98110.22;4980040;28;20049;-69
2022/05/17 08:42:25;;;;;;;3.90;1.23;;;23.80;99.90;;;22.74;100.00;98104.09;4993962;28;20586;-69
2022/05/17 08:45:03;;;;;;;7.38;2.05;;;24.20;99.90;;;22.48;100.00;98106.25;4982749;28;20233;-69
2022/05/17 08:47:52;;;;;;;5.15;1.35;;;24.00;99.90;;;22.55;100.00;98104.78;4986855;28;20061;-70
2022/05/17 08:50:37;;;;;;;3.53;1.35;;;24.00;99.90;;;22.42;100.00;98117.34;4981861;28;20429;-69
2022/05/17 08:53:10;;;;;;;6.55;1.10;;;23.90;99.90;;;23.67;100.00;98105.81;4980283;28;20109;-69
2022/05/17 08:55:41;;;;;;;6.20;1.38;;;24.20;99.90;;;23.06;100.00;98108.47;4996805;28;20046;-69
2022/05/17 08:58:16;;;;;;;6.80;1.77;;;24.30;99.90;;;22.18;100.00;98112.25;4978258;28;20074;-69
2022/05/17 09:01:02;;;;;;;4.88;1.70;;;24.30;99.90;;;21.62;100.00;98108.78;4981540;28;20043;-69
2022/05/17 09:03:36;;;;;;;4.07;1.35;;;24.10;99.90;;;22.26;100.00;98108.06;4981226;28;20540;-70
2022/05/17 09:06:21;;;;;;;4.30;1.25;;;24.20;99.90;;;22.63;100.00;98107.66;4983455;28;20100;-69
2022/05/17 09:09:07;;;;;;;3.50;1.40;;;24.00;99.90;;;22.76;100.00;98104.78;4982733;28;20053;-69
2022/05/17 09:11:50;;;;;;;4.65;1.50;;;24.00;99.90;;;22.83;100.00;98105.09;4977925;28;20065;-69
2022/05/17 09:14:32;;;;;;;5.75;1.52;;;24.00;99.90;;;22.24;100.00;98102.03;4983477;28;20594;-69
2022/05/17 09:17:21;;;;;;;7.15;1.70;;;24.00;99.90;;;23.10;100.00;98107.25;4979766;28;20082;-69
2022/05/17 09:19:51;;;;;;;3.63;1.42;;;24.10;99.90;;;24.09;100.00;98089.75;4968985;28;20125;-69
2022/05/17 09:22:20;;;;;;;3.50;1.30;;;24.50;99.90;;;24.13;100.00;98090.31;4979131;28;20047;-69
2022/05/17 09:24:55;;;;;;;5.30;1.58;;;24.60;99.90;;;23.98;100.00;98085.41;4980984;28;20050;-69
2022/05/17 09:27:35;;;;;;;4.28;1.45;;;24.70;99.90;;;22.91;100.00;98092.91;4981369;28;20295;-69
2022/05/17 09:30:22;;;;;;;4.22;1.50;;;24.60;99.90;;;23.10;100.00;98086.91;4977945;28;20069;-69
2022/05/17 09:33:10;;;;;;;3.75;1.45;;;24.60;99.90;;;24.58;100.00;98084.47;4978213;28;20500;-69
2022/05/17 09:35:57;;;;;;;5.93;1.30;;;24.80;99.90;;;24.06;100.00;98082.06;4980935;28;20619;-69
2022/05/17 09:38:32;;;;;;;2.90;1.30;;;24.70;99.90;;;23.72;100.00;98084.22;4981804;28;20192;-70
2022/05/17 09:41:00;;;;;;;6.45;1.45;;;24.60;99.90;;;23.99;100.00;98079.16;4981522;28;20489;-69
2022/05/17 09:43:39;;;;;;;4.93;1.40;;;24.60;99.90;;;24.80;100.00;98078.88;4979592;28;20280;-68
2022/05/17 09:46:17;;;;;;;7.63;1.80;;;25.00;99.90;;;25.56;100.00;98077.09;4980981;28;20043;-68
2022/05/17 09:55:20;;;;;;;2.90;1.10;;;26.00;99.90;;;24.52;100.00;98077.06;4976600;28;20058;-70
2022/05/17 09:58:02;;;;;;;5.30;1.30;;;25.90;99.90;;;24.52;100.00;98082.38;4985398;28;20504;-70
2022/05/17 10:00:51;;;;;;;3.55;1.00;;;25.80;99.20;;;26.56;100.00;98075.31;4978449;28;20050;-70
2022/05/17 10:03:36;;;;;;;2.83;0.98;;;26.00;99.90;;;26.20;100.00;98065.50;4983216;28;20046;-70
2022/05/17 10:06:46;;;;;;;5.85;1.60;;;26.40;99.00;;;25.29;100.00;98069.94;4991784;28;20152;-70
2022/05/17 10:09:34;;;;;;;5.43;1.30;;;26.40;98.10;;;25.12;100.00;98063.56;4983289;28;20051;-68
2022/05/17 10:13:00;;;;;;;4.63;1.27;;;26.40;97.90;;;25.93;100.00;98060.25;4985773;28;20153;-70
2022/05/17 10:15:29;;;;;;;3.13;1.10;;;26.40;98.00;;;26.07;100.00;98060.56;4981108;28;20432;-70
2022/05/17 10:18:13;;;;;;;3.30;1.20;;;26.50;97.10;;;25.63;100.00;98060.38;4983049;28;20420;-70
2022/05/17 10:20:46;;;;;;;4.95;0.98;;;26.30;96.10;;;24.49;100.00;98064.09;4986852;28;20496;-70
2022/05/17 10:23:25;;;;;;;6.65;1.50;;;25.70;98.80;;;25.51;100.00;98058.94;4986268;28;20046;-70
2022/05/17 10:26:02;;;;;;;4.93;1.50;;;25.70;99.90;;;25.87;100.00;98057.19;4982095;28;20038;-69
2022/05/17 10:28:49;;;;;;;5.10;1.50;;;26.20;99.00;;;25.59;100.00;98058.19;4981554;28;20511;-70
2022/05/17 10:31:48;;;;;;;7.70;1.77;;;26.40;98.50;;;25.07;100.00;98057.84;4983025;28;20157;-70
2022/05/17 10:34:57;;;;;;;3.15;1.40;;;25.90;98.20;;;25.69;100.00;98060.81;4981505;28;20061;-69
2022/05/17 10:38:02;;;;;;;6.10;1.60;;;26.10;98.60;;;26.80;100.00;98053.34;4951835;28;20138;-70
2022/05/17 10:40:38;;;;;;;6.90;1.50;;;26.70;97.80;;;26.18;100.00;98054.16;4985257;28;21271;-70
2022/05/17 10:43:05;;;;;;;5.40;1.52;;;27.10;97.00;;;26.76;100.00;98046.69;4987075;28;20065;-69
2022/05/17 10:45:35;;;;;;;3.45;1.17;;;27.10;97.60;;;26.74;100.00;98046.84;4977090;28;20080;-69
2022/05/17 10:48:34;;;;;;;4.57;1.10;;;27.10;96.90;;;27.48;100.00;98042.75;4984733;28;20152;-70
2022/05/17 10:51:50;;;;;;;6.22;1.50;;;27.50;96.80;;;27.12;100.00;98053.56;4982570;28;20080;-70